createdAt,value
2022-10-28T00:03:17.505Z,11.47
2022-10-28T00:08:18.509Z,11.49
2022-10-28T00:13:19.676Z,11.51
2022-10-28T00:18:20.785Z,11.53
2022-10-28T00:23:21.748Z,11.54
2022-10-28T00:28:22.731Z,11.57
2022-10-28T00:33:23.820Z,11.59
2022-10-28T00:38:24.911Z,11.61
2022-10-28T00:43:44.813Z,11.63
2022-10-28T00:48:51.394Z,11.63
2022-10-28T00:53:55.275Z,11.62
2022-10-28T00:59:00.372Z,11.61
2022-10-28T01:04:02.159Z,11.62
2022-10-28T01:09:03.406Z,11.68
2022-10-28T01:14:33.669Z,11.73
2022-10-28T01:20:13.654Z,11.77
2022-10-28T01:25:23.630Z,11.83
2022-10-28T01:30:28.101Z,11.88
2022-10-28T01:36:03.310Z,11.95
2022-10-28T01:41:22.145Z,12.01
2022-10-28T01:46:34.636Z,12.04
2022-10-28T01:51:41.340Z,12.06
2022-10-28T01:56:45.231Z,12.05
2022-10-28T02:01:46.434Z,12.04
2022-10-28T02:06:52.640Z,11.99
2022-10-28T02:12:10.113Z,11.96
2022-10-28T02:17:48.727Z,11.95
2022-10-28T02:23:10.732Z,11.92
2022-10-28T02:28:18.524Z,11.81
2022-10-28T02:33:24.760Z,11.69
2022-10-28T02:38:32.651Z,11.58
2022-10-28T02:43:37.263Z,11.45
2022-10-28T02:48:48.237Z,11.35
2022-10-28T02:54:11.048Z,11.28
2022-10-28T02:59:12.831Z,11.24
2022-10-28T03:04:13.912Z,11.18
2022-10-28T03:09:15.162Z,11.17
2022-10-28T03:14:16.205Z,11.20
2022-10-28T03:19:17.488Z,11.15
2022-10-28T03:24:18.537Z,11.10
2022-10-28T03:29:20.292Z,11.03
2022-10-28T03:34:21.498Z,11.00
2022-10-28T03:39:23.114Z,10.97
2022-10-28T03:44:24.213Z,10.89
2022-10-28T03:49:25.387Z,10.80
2022-10-28T03:54:26.424Z,10.70
2022-10-28T03:59:27.379Z,10.68
2022-10-28T04:04:30.777Z,10.68
2022-10-28T04:09:32.115Z,10.68
2022-10-28T04:14:33.208Z,10.71
2022-10-28T04:19:34.268Z,10.75
2022-10-28T04:24:35.212Z,10.81
2022-10-28T04:29:37.023Z,10.83
2022-10-28T04:34:38.338Z,10.88
2022-10-28T04:39:39.501Z,10.88
2022-10-28T04:44:40.464Z,10.89
2022-10-28T04:49:41.447Z,10.90
2022-10-28T04:54:43.611Z,10.92
2022-10-28T04:59:46.000Z,10.90
2022-10-28T05:04:47.395Z,10.89
2022-10-28T05:09:48.329Z,10.91
2022-10-28T05:14:51.241Z,10.94
2022-10-28T05:19:54.274Z,10.98
2022-10-28T05:24:55.350Z,10.97
2022-10-28T05:29:56.570Z,10.92
2022-10-28T05:34:57.530Z,10.91
2022-10-28T05:39:58.569Z,10.94
2022-10-28T05:44:59.946Z,10.93
2022-10-28T05:50:01.423Z,10.90
2022-10-28T05:55:02.541Z,10.87
2022-10-28T06:00:05.322Z,10.87
2022-10-28T06:05:07.851Z,10.90
2022-10-28T06:10:10.280Z,10.96
2022-10-28T06:15:10.019Z,11.05
2022-10-28T06:20:11.098Z,11.12
2022-10-28T06:25:12.609Z,11.21
2022-10-28T06:30:13.926Z,11.40
2022-10-28T06:35:15.432Z,11.57
2022-10-28T06:40:16.431Z,11.77
2022-10-28T06:45:17.641Z,11.97
2022-10-28T06:50:20.476Z,12.15
2022-10-28T06:55:23.843Z,12.27
2022-10-28T07:00:26.970Z,12.36
2022-10-28T07:05:31.136Z,12.39
2022-10-28T07:10:32.473Z,12.45
2022-10-28T07:15:33.632Z,12.52
2022-10-28T07:20:34.635Z,12.62
2022-10-28T07:25:35.705Z,12.79
2022-10-28T07:30:36.743Z,13.06
2022-10-28T07:35:37.929Z,13.27
2022-10-28T07:40:39.246Z,13.47
2022-10-28T07:45:40.366Z,13.60
2022-10-28T07:50:41.582Z,13.65
2022-10-28T07:55:42.741Z,13.70
2022-10-28T08:00:43.767Z,13.88
2022-10-28T08:05:45.386Z,14.08
2022-10-28T08:10:46.488Z,14.24
2022-10-28T08:15:54.289Z,14.39
2022-10-28T08:26:00.263Z,14.63
2022-10-28T08:31:10.132Z,14.76
2022-10-28T08:36:14.155Z,14.92
2022-10-28T08:41:30.635Z,15.05
2022-10-28T08:46:50.594Z,15.22
2022-10-28T08:52:02.977Z,15.34
2022-10-28T08:57:09.246Z,15.42
2022-10-28T09:02:10.247Z,15.54
2022-10-28T09:07:33.230Z,15.70
2022-10-28T09:12:58.814Z,15.80
2022-10-28T09:18:19.755Z,15.78
2022-10-28T09:23:30.321Z,15.65
2022-10-28T09:28:50.322Z,15.68
2022-10-28T09:33:58.777Z,15.75
2022-10-28T09:39:02.634Z,15.80
2022-10-28T09:44:14.970Z,15.86
2022-10-28T09:49:21.605Z,15.93
2022-10-28T09:54:32.963Z,16.03
2022-10-28T09:59:34.353Z,16.14
2022-10-28T10:04:35.659Z,16.24
2022-10-28T10:09:38.212Z,16.32
2022-10-28T10:14:47.697Z,16.42
2022-10-28T10:20:10.042Z,16.51
2022-10-28T10:25:17.101Z,16.54
2022-10-28T10:30:22.673Z,16.57
2022-10-28T10:35:27.705Z,16.66
2022-10-28T10:40:39.356Z,16.72
2022-10-28T10:45:48.015Z,16.71
2022-10-28T10:50:49.953Z,16.68
2022-10-28T10:55:55.054Z,16.72
2022-10-28T11:00:58.882Z,16.85
2022-10-28T11:06:22.015Z,16.95
2022-10-28T11:11:30.658Z,17.06
2022-10-28T11:16:31.960Z,17.20
2022-10-28T11:21:56.467Z,17.32
2022-10-28T11:27:22.132Z,17.37
2022-10-28T11:32:26.253Z,17.50
2022-10-28T11:38:05.275Z,17.60
2022-10-28T11:43:31.432Z,17.68
2022-10-28T11:48:44.256Z,17.73
2022-10-28T11:54:23.027Z,17.82
2022-10-28T12:00:02.567Z,17.72
2022-10-28T12:05:31.268Z,17.67
2022-10-28T12:11:10.367Z,17.62
2022-10-28T12:16:39.242Z,17.54
2022-10-28T12:21:45.534Z,17.36
2022-10-28T12:27:15.290Z,17.25
2022-10-28T12:32:25.596Z,17.06
2022-10-28T12:37:49.939Z,16.89
2022-10-28T12:43:03.464Z,16.78
2022-10-28T12:48:31.047Z,16.79
2022-10-28T12:53:50.754Z,16.81
2022-10-28T12:59:12.398Z,16.83
2022-10-28T13:04:14.052Z,16.83
2022-10-28T13:09:39.032Z,16.75
2022-10-28T13:15:02.975Z,16.69
2022-10-28T13:20:42.088Z,16.73
2022-10-28T13:26:15.407Z,16.75
2022-10-28T13:31:17.757Z,16.68
2022-10-28T13:36:20.742Z,16.65
2022-10-28T13:41:48.778Z,16.71
2022-10-28T13:47:27.660Z,16.83
2022-10-28T13:52:29.070Z,16.94
2022-10-28T13:57:39.810Z,17.09
2022-10-28T14:03:02.903Z,17.15
2022-10-28T14:08:07.131Z,17.03
2022-10-28T14:13:18.614Z,16.95
2022-10-28T14:18:42.228Z,16.92
2022-10-28T14:23:43.970Z,16.84
2022-10-28T14:28:44.993Z,16.83
2022-10-28T14:33:55.233Z,16.82
2022-10-28T14:39:34.325Z,16.59
2022-10-28T14:44:54.548Z,16.33
2022-10-28T14:50:02.649Z,16.11
2022-10-28T14:55:18.482Z,15.92
2022-10-28T15:00:22.747Z,15.78
2022-10-28T15:05:29.614Z,15.68
2022-10-28T15:10:35.760Z,15.59
2022-10-28T15:15:38.705Z,15.47
2022-10-28T15:20:39.809Z,15.36
2022-10-28T15:25:41.303Z,15.25
2022-10-28T15:30:46.426Z,15.16
2022-10-28T15:35:48.109Z,15.07
2022-10-28T15:40:49.393Z,15.01
2022-10-28T15:45:50.465Z,14.94
2022-10-28T15:51:11.755Z,14.91
2022-10-28T15:56:12.728Z,14.91
2022-10-28T16:01:37.489Z,14.92
2022-10-28T16:06:39.166Z,14.94
2022-10-28T16:11:44.268Z,14.97
2022-10-28T16:16:45.617Z,14.98
2022-10-28T16:21:48.145Z,14.98
2022-10-28T16:26:49.258Z,14.95
2022-10-28T16:31:51.823Z,14.91
2022-10-28T16:36:53.041Z,14.86
2022-10-28T16:41:57.673Z,14.84
2022-10-28T16:46:58.708Z,14.86
2022-10-28T16:52:02.233Z,14.87
2022-10-28T16:57:03.260Z,14.85
2022-10-28T17:02:14.727Z,14.83
2022-10-28T17:07:17.823Z,14.79
2022-10-28T17:12:24.616Z,14.81
2022-10-28T17:17:25.775Z,14.88
2022-10-28T17:22:27.108Z,14.93
2022-10-28T17:27:28.147Z,14.97
2022-10-28T17:32:29.136Z,15.00
2022-10-28T17:37:30.296Z,15.01
2022-10-28T17:42:31.539Z,14.98
2022-10-28T17:47:33.982Z,14.92
2022-10-28T17:52:38.370Z,14.89
2022-10-28T17:57:39.715Z,14.87
2022-10-28T18:02:40.829Z,14.88
2022-10-28T18:07:42.419Z,14.89
2022-10-28T18:12:43.551Z,14.90
2022-10-28T18:17:48.875Z,14.89
2022-10-28T18:22:49.945Z,14.86
2022-10-28T18:27:51.149Z,14.83
2022-10-28T18:32:53.044Z,14.82
2022-10-28T18:37:55.016Z,14.82
2022-10-28T18:42:56.558Z,14.86
2022-10-28T18:47:58.043Z,14.89
2022-10-28T18:52:59.251Z,14.91
2022-10-28T18:58:00.431Z,14.91
2022-10-28T19:03:01.771Z,14.88
2022-10-28T19:08:03.013Z,14.85
2022-10-28T19:13:04.151Z,14.81
2022-10-28T19:18:05.210Z,14.78
2022-10-28T19:23:06.354Z,14.76
2022-10-28T19:28:07.494Z,14.74
2022-10-28T19:33:08.705Z,14.74
2022-10-28T19:38:09.751Z,14.75
2022-10-28T19:43:10.770Z,14.75
2022-10-28T19:48:11.800Z,14.72
2022-10-28T19:53:13.063Z,14.70
2022-10-28T19:58:14.087Z,14.67
2022-10-28T20:03:15.181Z,14.67
2022-10-28T20:08:16.499Z,14.69
2022-10-28T20:13:17.549Z,14.70
2022-10-28T20:18:18.610Z,14.70
2022-10-28T20:23:19.767Z,14.68
2022-10-28T20:28:21.430Z,14.66
2022-10-28T20:33:23.330Z,14.64
2022-10-28T20:38:26.040Z,14.64
2022-10-28T20:43:28.885Z,14.66
2022-10-28T20:48:30.512Z,14.72
2022-10-28T20:53:35.499Z,14.75
2022-10-28T20:58:36.515Z,14.75
2022-10-28T21:03:40.199Z,14.72
2022-10-28T21:08:42.502Z,14.69
2022-10-28T21:13:48.110Z,14.66
2022-10-28T21:18:49.850Z,14.63
2022-10-28T21:23:51.183Z,14.60
2022-10-28T21:28:52.819Z,14.58
2022-10-28T21:33:54.584Z,14.58
2022-10-28T21:38:55.956Z,14.57
2022-10-28T21:43:57.349Z,14.56
2022-10-28T21:49:00.226Z,14.56
2022-10-28T21:54:01.477Z,14.57
2022-10-28T21:59:02.787Z,14.58
2022-10-28T22:04:04.417Z,14.57
2022-10-28T22:09:05.460Z,14.54
2022-10-28T22:14:06.764Z,14.52
2022-10-28T22:19:13.760Z,14.51
2022-10-28T22:24:14.928Z,14.49
2022-10-28T22:29:15.948Z,14.45
2022-10-28T22:34:17.006Z,14.40
2022-10-28T22:39:18.210Z,14.36
2022-10-28T22:44:19.302Z,14.34
2022-10-28T22:49:23.410Z,14.34
2022-10-28T22:54:24.540Z,14.32
2022-10-28T22:59:25.859Z,14.30
2022-10-28T23:04:27.694Z,14.26
2022-10-28T23:09:29.082Z,14.23
2022-10-28T23:14:30.196Z,14.20
2022-10-28T23:19:31.248Z,14.18
2022-10-28T23:24:32.351Z,14.18
2022-10-28T23:29:33.388Z,14.16
2022-10-28T23:34:34.434Z,14.13
2022-10-28T23:39:35.742Z,14.11
2022-10-28T23:44:36.819Z,14.12
2022-10-28T23:49:37.883Z,14.12
2022-10-28T23:54:39.417Z,14.10
2022-10-28T23:59:40.520Z,14.10
